Time;durP1;ratioP1;P1;durP2;ratioP2;P2;SDS_P1;SDS_P2;PMS_P1;PMS_P2;Temp;Humidity;BMP_temperature;BMP_pressure;BME280_temperature;BME280_humidity;BME280_pressure;Samples;Min_cycle;Max_cycle;Signal;HPM_P1;HPM_P2
2022/09/13 00:00:43;;;;;;;15.18;12.63;;;16.90;99.90;;;;;;5018028;28;90160;-31
2022/09/13 00:03:11;;;;;;;19.20;14.55;;;16.90;99.90;;;;;;5015936;28;89858;-32
2022/09/13 00:05:37;;;;;;;16.10;14.40;;;16.90;99.90;;;;;;5017639;28;90350;-31
2022/09/13 00:08:04;;;;;;;14.25;12.20;;;16.90;99.90;;;;;;5017704;27;89559;-31
2022/09/13 00:10:33;;;;;;;16.52;14.23;;;16.90;99.90;;;;;;5017244;28;89693;-34
2022/09/13 00:12:59;;;;;;;16.58;14.18;;;16.90;99.90;;;;;;5016328;27;88467;-31
2022/09/13 00:15:25;;;;;;;16.23;12.85;;;16.90;99.90;;;;;;5017077;28;90380;-32
2022/09/13 00:17:50;;;;;;;15.77;13.55;;;16.80;99.90;;;;;;5016782;27;89964;-33
2022/09/13 00:20:16;;;;;;;16.05;11.55;;;16.80;99.90;;;;;;5020888;27;90071;-33
2022/09/13 00:22:42;;;;;;;16.27;14.55;;;16.80;99.90;;;;;;5010027;27;89744;-30
2022/09/13 00:25:08;;;;;;;12.70;11.38;;;16.80;99.90;;;;;;5018215;28;90008;-32
2022/09/13 00:27:35;;;;;;;14.68;13.18;;;16.80;99.90;;;;;;5020824;27;90872;-34
2022/09/13 00:30:05;;;;;;;19.70;15.77;;;16.80;99.90;;;;;;5020343;28;90534;-32
2022/09/13 00:32:33;;;;;;;18.95;13.80;;;16.80;99.90;;;;;;5020644;28;89455;-33
2022/09/13 00:34:58;;;;;;;15.55;13.93;;;16.80;99.90;;;;;;5020440;27;90983;-32
2022/09/13 00:37:24;;;;;;;16.25;14.50;;;16.80;99.90;;;;;;5020914;28;89791;-32
2022/09/13 00:39:50;;;;;;;17.55;14.25;;;16.80;99.90;;;;;;5057358;22;89902;-33
2022/09/13 00:42:16;;;;;;;19.88;16.88;;;16.80;99.90;;;;;;5020461;27;89752;-35
2022/09/13 00:44:58;;;;;;;16.52;14.38;;;16.80;99.90;;;;;;5021354;27;90191;-33
2022/09/13 00:47:29;;;;;;;16.05;14.38;;;16.80;99.90;;;;;;5020079;27;89878;-35
2022/09/13 00:50:15;;;;;;;17.00;14.98;;;16.80;99.90;;;;;;5020724;27;90055;-30
2022/09/13 00:52:44;;;;;;;17.20;15.38;;;16.80;99.90;;;;;;5020663;28;90061;-33
2022/09/13 00:55:24;;;;;;;17.15;15.13;;;16.70;99.90;;;;;;5020304;28;90649;-33
2022/09/13 00:57:52;;;;;;;16.85;15.13;;;16.70;99.90;;;;;;5020007;27;89480;-32
2022/09/13 01:00:18;;;;;;;22.27;15.95;;;16.70;99.90;;;;;;5020877;27;89750;-30
2022/09/13 01:02:49;;;;;;;18.70;16.67;;;16.70;99.90;;;;;;5020291;27;88872;-32
2022/09/13 01:05:18;;;;;;;17.52;15.68;;;16.70;99.90;;;;;;5020038;27;89508;-31
2022/09/13 01:07:45;;;;;;;20.23;16.05;;;16.70;99.90;;;;;;5020281;27;90497;-32
2022/09/13 01:10:11;;;;;;;17.85;15.63;;;16.70;99.90;;;;;;5020643;28;90578;-32
2022/09/13 01:12:42;;;;;;;17.90;16.00;;;16.80;99.90;;;;;;5021034;28;89428;-33
2022/09/13 01:15:09;;;;;;;19.02;15.05;;;16.80;99.90;;;;;;5020344;27;90317;-30
2022/09/13 01:17:35;;;;;;;18.27;14.90;;;16.70;99.90;;;;;;5019132;27;90509;-34
2022/09/13 01:20:03;;;;;;;16.80;14.90;;;16.80;99.90;;;;;;5020047;27;90683;-30
2022/09/13 01:22:57;;;;;;;17.88;15.65;;;16.70;99.90;;;;;;5019881;27;88545;-31
2022/09/13 01:25:42;;;;;;;18.48;14.80;;;16.70;99.90;;;;;;5007019;28;90927;-32
2022/09/13 01:28:56;;;;;;;16.92;14.95;;;16.70;99.90;;;;;;5019606;28;91496;-33
2022/09/13 01:31:39;;;;;;;21.50;16.20;;;16.70;99.90;;;;;;4952200;28;89741;-33
2022/09/13 01:34:26;;;;;;;22.75;16.00;;;16.70;99.90;;;;;;5020544;27;88352;-32
2022/09/13 01:37:30;;;;;;;21.20;16.93;;;16.70;99.90;;;;;;5019833;27;91112;-31
2022/09/13 01:40:17;;;;;;;19.77;16.38;;;16.70;99.90;;;;;;5019019;27;89916;-34
2022/09/13 01:42:57;;;;;;;22.73;18.00;;;16.70;99.90;;;;;;5020068;28;90020;-35
2022/09/13 01:45:25;;;;;;;19.08;15.63;;;16.70;99.90;;;;;;5018886;28;90025;-33
2022/09/13 01:47:54;;;;;;;19.10;17.00;;;16.70;99.90;;;;;;5019685;28;90295;-35
2022/09/13 01:50:36;;;;;;;24.90;19.23;;;16.70;99.90;;;;;;5019933;27;88993;-33
2022/09/13 01:53:25;;;;;;;19.67;16.45;;;16.70;99.90;;;;;;5019246;27;89590;-31
2022/09/13 01:56:11;;;;;;;19.30;16.67;;;16.70;99.90;;;;;;4977353;27;89315;-33
2022/09/13 01:58:45;;;;;;;19.98;17.25;;;16.70;99.90;;;;;;5019231;27;90095;-33
2022/09/13 02:01:29;;;;;;;19.58;16.95;;;16.70;99.90;;;;;;5018705;28;89410;-32
2022/09/13 02:04:03;;;;;;;22.92;17.52;;;16.70;99.90;;;;;;5019259;28;89393;-35
2022/09/13 02:06:44;;;;;;;20.38;16.58;;;16.70;99.90;;;;;;5019245;27;89499;-32
2022/09/13 02:09:19;;;;;;;18.67;15.73;;;16.70;99.90;;;;;;5019069;28;90139;-34
2022/09/13 02:11:49;;;;;;;22.10;17.27;;;16.70;99.90;;;;;;5019072;28;90762;-31
2022/09/13 02:14:24;;;;;;;23.75;18.73;;;16.70;99.90;;;;;;5019338;27;91050;-31
2022/09/13 02:16:59;;;;;;;29.05;19.85;;;16.70;99.90;;;;;;5020222;27;90853;-32
2022/09/13 02:19:56;;;;;;;21.63;19.38;;;16.70;99.90;;;;;;5018675;28;90462;-31
2022/09/13 02:22:30;;;;;;;24.65;18.98;;;16.70;99.90;;;;;;5018719;27;89458;-34
2022/09/13 02:25:03;;;;;;;23.83;17.73;;;16.60;99.90;;;;;;5019852;28;90104;-34
2022/09/13 02:27:32;;;;;;;20.60;17.67;;;16.70;99.90;;;;;;5018601;27;89503;-34
2022/09/13 02:30:05;;;;;;;21.08;17.67;;;16.60;99.90;;;;;;5018645;28;90410;-32
2022/09/13 02:32:36;;;;;;;21.65;19.05;;;16.60;99.90;;;;;;5018971;27;90348;-32
2022/09/13 02:35:12;;;;;;;26.15;22.70;;;16.60;99.90;;;;;;5019069;28;89963;-32
2022/09/13 02:37:40;;;;;;;23.38;19.33;;;16.60;99.90;;;;;;5019197;27;90639;-33
2022/09/13 02:40:14;;;;;;;22.83;20.50;;;16.60;99.90;;;;;;5018323;28;90199;-32
2022/09/13 02:42:46;;;;;;;29.35;20.23;;;16.60;99.90;;;;;;5017841;27;89753;-32
2022/09/13 02:45:14;;;;;;;29.42;20.80;;;16.60;99.90;;;;;;5018667;27;89586;-34
2022/09/13 02:47:56;;;;;;;26.43;20.30;;;16.60;99.90;;;;;;5019016;28;88091;-31
2022/09/13 02:50:47;;;;;;;22.77;20.35;;;16.60;99.90;;;;;;5018756;28;90268;-35
2022/09/13 02:53:25;;;;;;;26.33;20.73;;;16.60;99.90;;;;;;5006661;28;91819;-32
2022/09/13 02:56:06;;;;;;;27.67;21.58;;;16.60;99.90;;;;;;5018849;27;89628;-32
2022/09/13 02:58:44;;;;;;;27.00;21.42;;;16.60;99.90;;;;;;5018678;27;89097;-33
2022/09/13 03:01:10;;;;;;;22.90;20.25;;;16.60;99.90;;;;;;5018603;28;89829;-34
2022/09/13 03:03:36;;;;;;;25.80;20.73;;;16.60;99.90;;;;;;5018154;28;89412;-33
2022/09/13 03:06:01;;;;;;;27.42;23.33;;;16.60;99.90;;;;;;5018729;28;92370;-33
2022/09/13 03:08:28;;;;;;;25.25;20.70;;;16.70;99.90;;;;;;5018102;28;89608;-30
2022/09/13 03:11:18;;;;;;;26.92;20.65;;;16.70;99.90;;;;;;5018628;27;90156;-33
2022/09/13 03:13:53;;;;;;;24.33;20.40;;;16.70;99.90;;;;;;5019158;28;89965;-31
2022/09/13 03:16:27;;;;;;;29.05;22.55;;;16.70;99.90;;;;;;5004834;28;91315;-33
2022/09/13 03:19:02;;;;;;;23.75;19.65;;;16.70;99.90;;;;;;5018016;28;89089;-30
2022/09/13 03:21:41;;;;;;;24.83;21.38;;;16.70;99.90;;;;;;5005561;28;89981;-32
2022/09/13 03:24:24;;;;;;;21.17;18.25;;;16.80;99.90;;;;;;5018837;28;89915;-32
2022/09/13 03:27:23;;;;;;;26.98;20.45;;;16.70;99.90;;;;;;5018477;27;89777;-34
2022/09/13 03:30:05;;;;;;;26.77;22.00;;;16.80;99.90;;;;;;5018091;27;90243;-34
2022/09/13 03:32:51;;;;;;;31.17;23.05;;;16.80;99.90;;;;;;5018101;27;90234;-31
2022/09/13 03:35:40;;;;;;;25.73;21.02;;;16.80;99.90;;;;;;5017291;27;89562;-31
2022/09/13 03:38:20;;;;;;;25.92;21.25;;;16.80;99.90;;;;;;4998635;28;89641;-34
2022/09/13 03:40:58;;;;;;;24.95;19.75;;;16.80;99.90;;;;;;5018107;27;89352;-33
2022/09/13 03:43:29;;;;;;;25.55;20.63;;;16.80;99.90;;;;;;5017602;27;90381;-33
2022/09/13 03:45:59;;;;;;;23.98;21.33;;;16.80;99.90;;;;;;5018195;27;90227;-30
2022/09/13 03:48:26;;;;;;;26.38;20.27;;;16.80;99.90;;;;;;5018522;27;90982;-33
2022/09/13 03:50:53;;;;;;;26.70;21.17;;;16.80;99.90;;;;;;5018501;28;89922;-31
2022/09/13 03:53:27;;;;;;;24.42;21.70;;;16.90;99.90;;;;;;5018295;27;90832;-32
2022/09/13 03:55:53;;;;;;;23.38;19.70;;;16.90;99.90;;;;;;5021186;28;91075;-30
2022/09/13 03:58:20;;;;;;;28.90;22.65;;;16.80;99.90;;;;;;5021126;27;89732;-32
2022/09/13 04:00:46;;;;;;;26.33;20.63;;;16.90;99.90;;;;;;5021912;27;89890;-34
2022/09/13 04:03:12;;;;;;;24.17;19.92;;;16.90;99.90;;;;;;5021409;27;90925;-33
2022/09/13 04:05:38;;;;;;;20.40;17.90;;;16.80;99.90;;;;;;5020501;28;89700;-34
2022/09/13 04:08:05;;;;;;;25.13;20.30;;;16.90;99.90;;;;;;5022084;28;88211;-30
2022/09/13 04:10:31;;;;;;;23.88;19.20;;;16.90;99.90;;;;;;5021139;28;89299;-32
2022/09/13 04:12:59;;;;;;;24.70;20.67;;;16.80;99.90;;;;;;5021692;28;90106;-34
2022/09/13 04:15:30;;;;;;;35.17;21.03;;;16.90;99.90;;;;;;5021310;27;88668;-33
2022/09/13 04:17:55;;;;;;;25.23;21.05;;;16.90;99.90;;;;;;5021046;27;89652;-34
2022/09/13 04:20:21;;;;;;;24.30;20.17;;;16.90;99.90;;;;;;5020608;27;89571;-32
2022/09/13 04:22:51;;;;;;;23.40;19.27;;;16.90;99.90;;;;;;5020681;28;89179;-32
2022/09/13 04:25:17;;;;;;;23.52;19.77;;;16.90;99.90;;;;;;5007307;28;89711;-33
2022/09/13 04:27:42;;;;;;;27.65;21.45;;;16.90;99.90;;;;;;5021254;28;89957;-32
2022/09/13 04:30:08;;;;;;;26.05;20.30;;;16.90;99.90;;;;;;5020485;28;88698;-32
2022/09/13 04:32:34;;;;;;;25.85;20.35;;;16.90;99.90;;;;;;5020999;27;90198;-35
2022/09/13 04:35:00;;;;;;;25.67;20.65;;;16.90;99.90;;;;;;5020786;28;90032;-30
2022/09/13 04:37:26;;;;;;;26.33;19.70;;;16.90;99.90;;;;;;5020419;27;90357;-34
2022/09/13 04:39:52;;;;;;;24.80;19.58;;;16.90;99.90;;;;;;5021647;28;89303;-30
2022/09/13 04:42:18;;;;;;;23.75;19.65;;;17.00;99.90;;;;;;5019972;28;90033;-31
2022/09/13 04:44:44;;;;;;;24.08;19.10;;;16.90;99.90;;;;;;5020681;27;90141;-32
2022/09/13 04:47:09;;;;;;;31.70;22.88;;;17.00;99.90;;;;;;5020813;28;90553;-32
2022/09/13 04:49:35;;;;;;;26.45;19.60;;;17.00;99.90;;;;;;5019952;28;88267;-32
2022/09/13 04:52:01;;;;;;;34.75;22.70;;;17.00;99.90;;;;;;5021261;28;90432;-30
2022/09/13 04:54:26;;;;;;;23.98;19.42;;;17.00;99.90;;;;;;5020067;28;90091;-31
2022/09/13 04:56:53;;;;;;;21.35;19.27;;;17.00;99.90;;;;;;5020846;27;90924;-31
2022/09/13 04:59:19;;;;;;;22.50;19.45;;;17.00;99.90;;;;;;5020050;27;89142;-31
2022/09/13 05:01:44;;;;;;;26.80;17.13;;;17.00;99.90;;;;;;5020797;28;90164;-31
2022/09/13 05:04:10;;;;;;;28.77;21.85;;;17.00;99.90;;;;;;5020482;28;90222;-32
2022/09/13 05:06:36;;;;;;;23.23;19.27;;;17.00;99.90;;;;;;5018610;28;89827;-33
2022/09/13 05:09:03;;;;;;;29.60;18.40;;;17.00;99.90;;;;;;5020295;28;89579;-33
2022/09/13 05:11:29;;;;;;;20.95;17.65;;;17.00;99.90;;;;;;5020603;28;90553;-31
2022/09/13 05:13:57;;;;;;;24.17;18.98;;;17.10;99.90;;;;;;5020013;28;90260;-29
2022/09/13 05:16:23;;;;;;;;;;;17.10;99.90;;;;;;5020798;27;90215;-34
2022/09/13 05:18:50;;;;;;;24.73;19.02;;;17.10;99.90;;;;;;5022074;27;88441;-34
2022/09/13 05:21:17;;;;;;;23.52;19.65;;;17.00;99.90;;;;;;5018815;27;90260;-30
2022/09/13 05:23:43;;;;;;;27.33;20.25;;;17.10;99.90;;;;;;5020086;27;89426;-30
2022/09/13 05:26:09;;;;;;;23.10;18.58;;;17.10;99.90;;;;;;5020435;28;89690;-33
2022/09/13 05:28:36;;;;;;;18.50;16.60;;;17.10;99.90;;;;;;5019098;27;87699;-31
2022/09/13 05:31:03;;;;;;;24.50;19.00;;;17.10;99.90;;;;;;5020019;28;89757;-33
2022/09/13 05:33:31;;;;;;;22.38;17.33;;;17.20;99.90;;;;;;5019532;27;90868;-31
2022/09/13 05:35:57;;;;;;;23.88;16.88;;;17.20;99.90;;;;;;5020044;27;90869;-30
2022/09/13 05:38:22;;;;;;;22.88;16.38;;;17.20;99.90;;;;;;5019477;28;88185;-31
2022/09/13 05:41:00;;;;;;;22.92;18.33;;;17.20;99.90;;;;;;5018841;27;89881;-31
2022/09/13 05:43:28;;;;;;;27.95;18.15;;;17.20;99.90;;;;;;5018921;27;89689;-33
2022/09/13 05:46:09;;;;;;;19.17;15.55;;;17.20;99.90;;;;;;5019190;27;90315;-34
2022/09/13 05:48:35;;;;;;;23.77;17.50;;;17.20;99.90;;;;;;5018901;27;89986;-30
2022/09/13 05:51:10;;;;;;;20.88;17.15;;;17.20;99.90;;;;;;5019351;28;90116;-31
2022/09/13 05:53:41;;;;;;;20.02;16.30;;;17.30;99.90;;;;;;5018202;28;90721;-32
2022/09/13 05:56:08;;;;;;;19.98;16.55;;;17.20;99.90;;;;;;5017730;28;89668;-33
2022/09/13 05:58:38;;;;;;;21.73;16.50;;;17.30;99.90;;;;;;5018722;27;90492;-30
2022/09/13 06:01:03;;;;;;;19.60;15.63;;;17.30;99.90;;;;;;5020044;27;90216;-32
2022/09/13 06:03:29;;;;;;;20.23;16.98;;;17.30;99.90;;;;;;5018484;27;89336;-31
2022/09/13 06:05:57;;;;;;;19.00;14.52;;;17.30;99.90;;;;;;5019069;27;89655;-34
2022/09/13 06:08:24;;;;;;;23.10;15.00;;;17.30;99.90;;;;;;5019816;28;89376;-31
2022/09/13 06:10:55;;;;;;;21.77;16.17;;;17.40;99.90;;;;;;5018996;27;90326;-33
2022/09/13 06:13:21;;;;;;;19.30;15.95;;;17.40;99.90;;;;;;5018451;27;89885;-30
2022/09/13 06:15:46;;;;;;;18.70;15.60;;;17.30;99.90;;;;;;5019069;28;88975;-32
2022/09/13 06:18:12;;;;;;;21.38;17.35;;;17.30;99.90;;;;;;5019161;27;87540;-31
2022/09/13 06:20:37;;;;;;;22.90;17.88;;;17.30;99.90;;;;;;5019339;28;90549;-32
2022/09/13 06:23:03;;;;;;;21.77;17.00;;;17.40;99.90;;;;;;5019049;28;90332;-32
2022/09/13 06:25:29;;;;;;;18.27;14.32;;;17.30;99.90;;;;;;5017022;28;90270;-30
2022/09/13 06:27:55;;;;;;;22.73;14.77;;;17.40;99.90;;;;;;5017771;27;89107;-32
2022/09/13 06:30:21;;;;;;;19.73;12.55;;;17.40;99.90;;;;;;5018612;28;90605;-32
2022/09/13 06:32:46;;;;;;;15.57;13.93;;;17.40;99.90;;;;;;5018610;28;90117;-30
2022/09/13 06:35:12;;;;;;;14.65;12.57;;;17.40;99.90;;;;;;5017657;27;89681;-31
2022/09/13 06:37:38;;;;;;;12.93;11.15;;;17.40;99.90;;;;;;5017728;28;89391;-32
2022/09/13 06:40:05;;;;;;;13.05;11.27;;;17.40;99.90;;;;;;5018345;28;90250;-31
2022/09/13 06:42:33;;;;;;;11.50;10.10;;;17.40;99.90;;;;;;5018992;28;89778;-31
2022/09/13 06:44:59;;;;;;;15.85;9.20;;;17.40;99.90;;;;;;5018725;27;89625;-30
2022/09/13 06:47:25;;;;;;;15.85;8.93;;;17.40;99.90;;;;;;5018397;28;88904;-30
2022/09/13 06:49:50;;;;;;;10.30;7.78;;;17.40;99.90;;;;;;5018728;28;90848;-31
2022/09/13 06:52:16;;;;;;;8.30;7.30;;;17.40;99.90;;;;;;5018835;28;89595;-32
2022/09/13 06:54:42;;;;;;;6.40;4.57;;;17.40;99.90;;;;;;5019208;28;88401;-33
2022/09/13 06:57:08;;;;;;;6.25;4.15;;;17.40;99.90;;;;;;5019320;28;89473;-32
2022/09/13 06:59:33;;;;;;;3.72;3.33;;;17.40;99.90;;;;;;5018615;27;89539;-33
2022/09/13 07:01:59;;;;;;;12.23;3.78;;;17.30;99.90;;;;;;5019324;28;89021;-32
2022/09/13 07:04:30;;;;;;;4.05;3.58;;;17.30;99.90;;;;;;5018637;28;89140;-33
2022/09/13 07:06:56;;;;;;;9.93;5.30;;;17.30;99.90;;;;;;5019040;27;88832;-33
2022/09/13 07:09:22;;;;;;;4.85;4.38;;;17.30;99.90;;;;;;5018097;27;90556;-33
2022/09/13 07:11:50;;;;;;;4.97;4.47;;;17.30;99.90;;;;;;5017072;28;89626;-30
2022/09/13 07:14:24;;;;;;;5.20;4.32;;;17.30;99.90;;;;;;5018405;27;90967;-32
2022/09/13 07:16:50;;;;;;;5.68;3.80;;;17.40;99.90;;;;;;5018998;27;89010;-32
2022/09/13 07:19:21;;;;;;;6.55;2.97;;;17.40;99.90;;;;;;5019003;28;91585;-30
2022/09/13 07:21:48;;;;;;;3.72;3.35;;;17.40;99.90;;;;;;5019102;27;89975;-32
2022/09/13 07:24:18;;;;;;;4.97;3.78;;;17.40;99.90;;;;;;5018954;27;89441;-31
2022/09/13 07:26:45;;;;;;;5.10;4.13;;;17.40;99.90;;;;;;5018472;27;88121;-31
2022/09/13 07:29:17;;;;;;;6.63;4.20;;;17.40;99.90;;;;;;5018071;27;91070;-30
2022/09/13 07:31:45;;;;;;;7.07;5.13;;;17.40;99.90;;;;;;5019041;27;89836;-33
2022/09/13 07:34:16;;;;;;;4.22;3.83;;;17.40;99.90;;;;;;5018233;27;89542;-33
2022/09/13 07:36:43;;;;;;;5.72;3.33;;;17.40;99.90;;;;;;5018150;27;90174;-32
2022/09/13 07:39:09;;;;;;;6.47;4.30;;;17.50;99.90;;;;;;5017743;27;89923;-33
2022/09/13 07:41:36;;;;;;;3.47;3.08;;;17.60;99.90;;;;;;5018785;28;88688;-33
2022/09/13 07:44:03;;;;;;;3.95;3.13;;;17.60;99.90;;;;;;5018972;27;89461;-31
2022/09/13 07:46:31;;;;;;;9.27;4.27;;;17.70;99.90;;;;;;5018489;27;89538;-30
2022/09/13 07:48:58;;;;;;;12.15;10.02;;;17.70;99.90;;;;;;5018446;27;90490;-34
2022/09/13 07:51:26;;;;;;;5.20;3.58;;;17.80;99.90;;;;;;5018024;27;89384;-31
2022/09/13 07:53:56;;;;;;;8.77;3.25;;;17.90;99.90;;;;;;5019593;27;88760;-32
2022/09/13 07:56:24;;;;;;;3.65;3.30;;;17.90;99.90;;;;;;5018595;27;90320;-32
2022/09/13 07:58:53;;;;;;;5.07;3.30;;;18.00;99.90;;;;;;5018157;27;90677;-32
2022/09/13 08:01:25;;;;;;;4.38;3.13;;;18.00;99.90;;;;;;5017431;27;92215;-32
2022/09/13 08:03:53;;;;;;;5.05;3.05;;;18.00;99.90;;;;;;5018203;27;90301;-32
2022/09/13 08:06:19;;;;;;;8.50;2.88;;;18.10;99.90;;;;;;5018455;27;89400;-33
2022/09/13 08:08:45;;;;;;;4.43;3.45;;;18.10;99.90;;;;;;5017669;27;89961;-32
2022/09/13 08:11:19;;;;;;;3.30;2.67;;;18.20;99.90;;;;;;5017732;27;89204;-32
2022/09/13 08:13:46;;;;;;;4.35;2.50;;;18.20;99.90;;;;;;5017883;27;89813;-31
2022/09/13 08:16:13;;;;;;;3.63;2.63;;;18.30;99.90;;;;;;5020506;27;90610;-35
2022/09/13 08:18:43;;;;;;;4.85;1.85;;;18.40;99.90;;;;;;5017867;27;90289;-31
2022/09/13 08:21:09;;;;;;;4.47;2.88;;;18.40;99.90;;;;;;5017742;28;89664;-34
2022/09/13 08:23:35;;;;;;;3.90;2.10;;;18.50;99.90;;;;;;5016663;28;88845;-32
2022/09/13 08:26:02;;;;;;;6.18;3.20;;;18.50;99.90;;;;;;5017357;28;89335;-31
2022/09/13 08:28:28;;;;;;;4.67;2.43;;;18.60;99.90;;;;;;5017444;27;90330;-32
2022/09/13 08:30:54;;;;;;;3.65;2.55;;;18.60;99.90;;;;;;5017400;28;89959;-33
2022/09/13 08:33:19;;;;;;;5.90;2.35;;;18.70;99.90;;;;;;5017913;28;90105;-30
2022/09/13 08:35:51;;;;;;;1.70;1.60;;;18.70;99.90;;;;;;5020017;28;89049;-32
2022/09/13 08:38:18;;;;;;;4.28;1.75;;;18.80;99.90;;;;;;5017413;28;90269;-32
2022/09/13 08:40:52;;;;;;;5.20;1.77;;;18.80;99.90;;;;;;5018434;27;89870;-33
2022/09/13 08:43:30;;;;;;;1.67;1.50;;;18.90;99.90;;;;;;5021760;28;90743;-33
2022/09/13 08:46:08;;;;;;;4.10;2.00;;;19.00;99.90;;;;;;5021416;28;88264;-30
2022/09/13 08:48:39;;;;;;;4.45;1.90;;;19.20;99.90;;;;;;5020916;28;89405;-34
2022/09/13 08:51:13;;;;;;;2.42;2.03;;;19.30;99.90;;;;;;5020817;27;91819;-32
2022/09/13 08:53:49;;;;;;;2.33;1.15;;;19.40;99.90;;;;;;5021362;27;90990;-31
2022/09/13 08:56:45;;;;;;;4.32;1.90;;;19.40;99.90;;;;;;5021450;27;88156;-31
2022/09/13 08:59:25;;;;;;;4.07;1.60;;;19.30;99.90;;;;;;5021806;28;90218;-32
2022/09/13 09:02:16;;;;;;;1.90;1.60;;;19.30;99.90;;;;;;5020946;28;89474;-32
2022/09/13 09:05:10;;;;;;;5.72;2.10;;;19.30;99.90;;;;;;5020960;27;88995;-33
2022/09/13 09:07:41;;;;;;;2.63;1.20;;;19.40;99.90;;;;;;5009482;28;89559;-32
2022/09/13 09:10:15;;;;;;;1.25;1.13;;;19.60;99.90;;;;;;5021663;27;91141;-31
2022/09/13 09:12:48;;;;;;;3.28;1.50;;;19.60;99.90;;;;;;5020591;28;89711;-31
2022/09/13 09:15:22;;;;;;;1.48;1.38;;;19.80;99.90;;;;;;5021030;27;89583;-33
2022/09/13 09:18:00;;;;;;;3.15;1.17;;;20.00;99.90;;;;;;5020739;27;89452;-32
2022/09/13 09:20:31;;;;;;;2.38;1.63;;;20.20;99.90;;;;;;5020445;27;90746;-33
2022/09/13 09:23:19;;;;;;;0.95;0.95;;;20.30;99.90;;;;;;5020481;28;89583;-31
2022/09/13 09:25:45;;;;;;;1.00;0.90;;;20.30;99.90;;;;;;5020071;28;90011;-32
2022/09/13 09:28:16;;;;;;;2.92;1.45;;;20.00;99.90;;;;;;5021125;28;89085;-33
2022/09/13 09:31:26;;;;;;;4.82;1.40;;;19.80;99.90;;;;;;5020809;27;90182;-32
2022/09/13 09:34:16;;;;;;;2.40;1.65;;;19.70;99.90;;;;;;5019008;28;90517;-33
2022/09/13 09:36:50;;;;;;;2.22;1.55;;;19.80;99.90;;;;;;5020160;27;89032;-34
2022/09/13 09:39:16;;;;;;;4.40;1.65;;;19.90;99.90;;;;;;5020497;27;87779;-30
2022/09/13 09:41:43;;;;;;;4.88;1.50;;;20.10;99.90;;;;;;5020574;27;89809;-33
2022/09/13 09:44:12;;;;;;;1.03;0.90;;;20.20;99.90;;;;;;5019628;28;91910;-31
2022/09/13 09:46:40;;;;;;;5.45;1.48;;;20.30;99.90;;;;;;5019939;27;90799;-37
2022/09/13 09:52:18;;;;;;;3.17;1.15;;;20.70;99.90;;;;;;5019371;28;90260;-34
2022/09/13 09:54:45;;;;;;;1.15;0.85;;;20.70;99.90;;;;;;5020482;27;89666;-31
2022/09/13 09:57:12;;;;;;;3.28;1.23;;;20.60;99.90;;;;;;5020050;27;89520;-34
2022/09/13 09:59:38;;;;;;;1.45;0.85;;;20.50;99.90;;;;;;5020959;28;89543;-32
2022/09/13 10:02:20;;;;;;;1.52;1.30;;;20.50;99.90;;;;;;5019962;27;90372;-31
2022/09/13 10:04:56;;;;;;;0.90;0.90;;;20.60;99.90;;;;;;5019709;28;89396;-32
2022/09/13 10:07:29;;;;;;;1.88;0.90;;;20.70;99.90;;;;;;5019347;27;89637;-34
2022/09/13 10:10:19;;;;;;;1.50;0.70;;;20.90;99.90;;;;;;5020035;27;88603;-31
2022/09/13 10:12:50;;;;;;;1.27;0.80;;;20.90;99.90;;;;;;5020270;27;89308;-36
2022/09/13 10:15:19;;;;;;;3.38;1.25;;;20.90;99.90;;;;;;5020009;27;89842;-31
2022/09/13 10:18:14;;;;;;;2.35;1.02;;;21.00;99.90;;;;;;5020039;27;89685;-34
2022/09/13 10:20:40;;;;;;;2.65;0.95;;;21.10;99.90;;;;;;5020542;27;88009;-31
2022/09/13 10:23:17;;;;;;;1.95;0.95;;;21.20;99.90;;;;;;5019656;27;89859;-33
2022/09/13 10:25:55;;;;;;;4.30;1.17;;;21.10;99.90;;;;;;5019233;27;89768;-36
2022/09/13 10:28:20;;;;;;;;;;;20.90;99.90;;;;;;5020566;27;89404;-31
2022/09/13 10:30:52;;;;;;;2.25;1.05;;;20.70;99.90;;;;;;5021385;27;88917;-34
2022/09/13 10:33:32;;;;;;;2.35;0.60;;;20.60;99.90;;;;;;5019030;27;90116;-33
2022/09/13 10:36:23;;;;;;;2.05;0.85;;;20.60;99.90;;;;;;5019226;28;90717;-32
2022/09/13 10:38:58;;;;;;;1.13;1.02;;;20.70;99.90;;;;;;5019009;27;91219;-33
2022/09/13 10:41:26;;;;;;;3.67;1.15;;;20.90;99.90;;;;;;5019629;28;88764;-30
2022/09/13 10:43:57;;;;;;;1.80;0.82;;;21.10;99.90;;;;;;5018075;28;90030;-29
2022/09/13 10:46:23;;;;;;;3.03;1.13;;;21.30;99.90;;;;;;5019587;27;89812;-30
2022/09/13 10:48:56;;;;;;;4.55;1.23;;;21.40;99.90;;;;;;5018972;27;89463;-30
2022/09/13 10:51:24;;;;;;;2.17;1.00;;;21.50;99.90;;;;;;5019856;27;89461;-32
2022/09/13 10:53:50;;;;;;;1.73;1.13;;;21.60;99.90;;;;;;5019433;28;91958;-32
2022/09/13 10:56:25;;;;;;;2.53;0.73;;;21.60;99.90;;;;;;5019102;28;89427;-29
2022/09/13 10:59:15;;;;;;;0.65;0.50;;;21.60;99.90;;;;;;5019711;27;90073;-30
2022/09/13 11:01:46;;;;;;;2.85;0.75;;;21.50;99.90;;;;;;5018838;28;90058;-33
2022/09/13 11:04:43;;;;;;;4.97;1.83;;;21.60;99.90;;;;;;5017791;27;90676;-34
2022/09/13 11:07:16;;;;;;;3.15;1.25;;;21.70;99.90;;;;;;5018765;27;90545;-33
2022/09/13 11:09:58;;;;;;;2.25;1.45;;;21.80;99.90;;;;;;5017776;28;89563;-33
2022/09/13 11:12:45;;;;;;;1.95;0.80;;;21.90;99.90;;;;;;5018598;27;89018;-29
2022/09/13 11:15:23;;;;;;;1.90;1.23;;;22.00;99.90;;;;;;5018498;27;90170;-33
2022/09/13 11:18:34;;;;;;;2.70;1.17;;;22.00;99.90;;;;;;5018202;28;89774;-31
2022/09/13 11:21:33;;;;;;;1.60;0.82;;;22.10;99.90;;;;;;5012260;28;88679;-32
2022/09/13 11:24:20;;;;;;;2.22;1.10;;;22.20;99.90;;;;;;5008440;28;90012;-31
2022/09/13 11:26:57;;;;;;;1.95;1.00;;;22.20;99.90;;;;;;5018486;28;90200;-30
2022/09/13 11:29:35;;;;;;;1.98;1.00;;;22.10;99.90;;;;;;5017406;27;90817;-31
2022/09/13 11:32:16;;;;;;;12.13;1.38;;;22.00;99.90;;;;;;5017912;28;89447;-32
2022/09/13 11:35:01;;;;;;;1.33;1.08;;;22.10;99.90;;;;;;5018999;28;88035;-32
2022/09/13 11:37:56;;;;;;;1.15;0.80;;;22.10;99.90;;;;;;5005681;28;90795;-30
2022/09/13 11:40:38;;;;;;;2.55;1.00;;;22.20;99.90;;;;;;5016165;28;91635;-33
2022/09/13 11:43:32;;;;;;;1.25;1.05;;;22.30;99.90;;;;;;5018073;28;89938;-32
2022/09/13 11:45:58;;;;;;;2.90;1.48;;;22.40;99.90;;;;;;5007117;28;89519;-33
2022/09/13 11:48:43;;;;;;;12.95;2.30;;;22.40;99.90;;;;;;5018091;28;89935;-32
2022/09/13 11:51:27;;;;;;;3.60;1.25;;;22.40;99.90;;;;;;4985174;27;90173;-30
2022/09/13 11:54:26;;;;;;;2.90;0.90;;;22.30;99.90;;;;;;5018377;28;90672;-31
2022/09/13 11:56:58;;;;;;;2.50;1.25;;;22.20;99.90;;;;;;5017062;28;89363;-31
2022/09/13 11:59:37;;;;;;;1.23;0.85;;;22.10;99.90;;;;;;5017635;28;90258;-33
2022/09/13 12:02:15;;;;;;;3.53;1.13;;;22.10;99.90;;;;;;5017822;27;89997;-30
2022/09/13 12:04:53;;;;;;;1.83;0.60;;;22.00;99.90;;;;;;5018435;27;90278;-30
2022/09/13 12:07:48;;;;;;;4.47;1.08;;;22.00;99.90;;;;;;5017802;27;87667;-32
2022/09/13 12:10:36;;;;;;;4.60;1.83;;;22.10;99.90;;;;;;5009862;28;90350;-32
2022/09/13 12:13:03;;;;;;;2.63;1.15;;;22.00;99.90;;;;;;5006210;28;89867;-32
2022/09/13 12:15:41;;;;;;;2.33;1.38;;;22.00;99.90;;;;;;5020048;27;89529;-33
2022/09/13 12:18:12;;;;;;;;;;;21.90;99.90;;;;;;5009371;28;89165;-31
2022/09/13 12:20:47;;;;;;;6.55;1.20;;;21.70;99.90;;;;;;5022773;27;90325;-30
2022/09/13 12:23:21;;;;;;;5.90;1.80;;;21.50;99.90;;;;;;5021254;27;90306;-30
2022/09/13 12:25:54;;;;;;;1.75;1.42;;;21.50;99.90;;;;;;5021214;27;90544;-32
2022/09/13 12:28:48;;;;;;;2.15;1.45;;;21.60;99.90;;;;;;5021403;27;88837;-31
2022/09/13 12:31:21;;;;;;;2.50;1.00;;;21.60;99.90;;;;;;5020753;27;90786;-31
2022/09/13 12:33:48;;;;;;;5.03;0.80;;;21.60;99.90;;;;;;5021738;28;91947;-32
2022/09/13 12:36:39;;;;;;;1.10;0.88;;;21.70;99.90;;;;;;5021214;27;90653;-32
2022/09/13 12:39:14;;;;;;;5.32;1.35;;;21.80;99.90;;;;;;5043612;22;87753;-33
2022/09/13 12:41:49;;;;;;;2.85;1.30;;;21.80;99.90;;;;;;5021355;28;90514;-33
2022/09/13 12:44:31;;;;;;;3.83;1.45;;;21.80;99.90;;;;;;5020592;28;90215;-35
2022/09/13 12:47:12;;;;;;;1.95;0.90;;;21.90;99.90;;;;;;5021010;27;90049;-32
2022/09/13 12:49:52;;;;;;;3.22;1.23;;;22.00;99.90;;;;;;5021311;27;90285;-31
2022/09/13 12:52:50;;;;;;;3.08;1.20;;;22.00;99.90;;;;;;5020723;28;90613;-32
2022/09/13 12:56:01;;;;;;;2.75;1.42;;;21.90;99.90;;;;;;5021181;28;89676;-31
2022/09/13 12:58:49;;;;;;;3.40;1.40;;;21.90;99.90;;;;;;4958165;28;88402;-33
2022/09/13 13:01:18;;;;;;;7.97;1.60;;;21.90;99.90;;;;;;5016922;27;89135;-32
2022/09/13 13:03:55;;;;;;;7.75;1.63;;;22.00;99.90;;;;;;5020794;27;90807;-33
2022/09/13 13:06:48;;;;;;;1.08;0.70;;;22.00;99.90;;;;;;5020811;28;89822;-31
2022/09/13 13:09:43;;;;;;;2.75;0.73;;;22.00;99.90;;;;;;5020038;28;88804;-33
2022/09/13 13:12:31;;;;;;;1.08;0.60;;;22.10;99.90;;;;;;5021523;27;89923;-34